Flight Information

DEPARTURE
HELENA, MT
Elevation:
3877
Runways:
17/35 - 2989x75 - ASPH-F
10/28 - 1584x75 - TURF
5/23 - 4644x75 - ASPH-F
9/27 - 9000x150 - ASPH-G
ATIS:
120.4
Ground:
121.9
Tower:
HELENA TOWER 118.3
DESTINATION
,
Elevation:
TPA:
1000 (est.)


6293.9 NM74° True-16° Var57° HDG

Flight Plan:
(click to file on line)

1. Type
2. Aircraft Identification
3. Aircraft Type / Special Equipment
4. True Airspeed
kts
5. Departure Airport
(ICAO code)
6. Arriving Airport
(ICAO code)
7. Cruising Altitude
ft
8. Alternate Airport
(ICAO code)
9. Route of Flight
10. Remarks


00:00:00 Departure ATIS: Destination ATIS:

Clearance Limit:
Route:
Altitude: Expect in minutes
Frequency:
Transponder: (7500 Hijack / 7600 Lost Comms / 7700 Emergency)


KHLN 010253Z AUTO 24007KT 10SM CLR 13/01 A3040 RMK AO2 SLP305 T01330006 53005
Time: 2020-10-01T02:53:00Z
1601521923
Winds: 240 @ 7 kts
Visibility: 10.0 sm
Clouds (AGL): CLR
Temperature: 13.3 C
Dew Point: 0.6 C
Pressure: 30.398623 in Hgbr


Notes:

Data extracted from FAA Digital Chart Supplement. Effective: 0901Z Thursday, Sep 10, 2020 to 0901Z Thursday, Nov 5, 2020
Current ATIS data is provided courtisy of PilotEdge.